Terminal Aerodrome Forecast
Issued by NWS

Home | Current Version | Previous Version | Text Only | Print | Product List | Glossary On
Versions: 1 2 3 4 5 6 7 8 9 10 11 12 13 14 15 16 17
924
FTUS44 KLZK 281738
TAFHRO
TAF
KHRO 281738Z 2818/2918 13008KT P6SM SCT040 BKN250
     FM290000 12004KT P6SM BKN250
      TEMPO 2910/2914 4SM BR
     FM291500 12006KT P6SM SCT035 BKN250=

USA.gov is the U.S. government's official web portal to all federal, state and local government web resources and services.